Time;durP1;ratioP1;P1;durP2;ratioP2;P2;SDS_P1;SDS_P2;PMS_P1;PMS_P2;Temp;Humidity;BMP_temperature;BMP_pressure;BME280_temperature;BME280_humidity;BME280_pressure;Samples;Min_cycle;Max_cycle;Signal;HPM_P1;HPM_P2
2023/02/17 00:04:40;;;;;;;93.50;59.70;;;;;;;;;;10018852;28;20050;-60
2023/02/17 00:09:33;;;;;;;87.60;58.50;;;;;;;;;;10023634;28;20096;-60
2023/02/17 00:14:27;;;;;;;100.65;65.20;;;;;;;;;;10024642;28;20034;-60
2023/02/17 00:19:24;;;;;;;103.90;67.47;;;;;;;;;;10025030;28;20061;-60
2023/02/17 00:24:18;;;;;;;118.57;73.22;;;;;;;;;;10024239;28;20058;-60
2023/02/17 00:29:12;;;;;;;113.97;72.28;;;;;;;;;;10028100;28;20046;-60
2023/02/17 00:34:05;;;;;;;118.88;75.55;;;;;;;;;;10025619;28;20459;-60
2023/02/17 00:38:58;;;;;;;121.13;79.20;;;;;;;;;;10031767;28;20089;-60
2023/02/17 00:43:51;;;;;;;119.47;78.53;;;;;;;;;;10026431;28;20058;-60
2023/02/17 00:48:47;;;;;;;112.72;73.40;;;;;;;;;;10031159;28;20054;-60
2023/02/17 00:53:40;;;;;;;112.75;77.10;;;;;;;;;;10021747;28;20058;-60
2023/02/17 00:58:33;;;;;;;128.00;80.30;;;;;;;;;;10036970;28;20057;-60
2023/02/17 01:03:27;;;;;;;119.82;80.15;;;;;;;;;;10011652;28;20057;-60
2023/02/17 01:08:21;;;;;;;125.43;80.63;;;;;;;;;;10030408;28;20426;-60
2023/02/17 01:13:15;;;;;;;133.20;83.35;;;;;;;;;;10021628;28;20061;-60
2023/02/17 01:18:08;;;;;;;129.10;85.18;;;;;;;;;;10030613;28;20054;-59
2023/02/17 01:23:01;;;;;;;124.18;86.20;;;;;;;;;;10030264;28;20141;-59
2023/02/17 01:27:55;;;;;;;129.93;82.88;;;;;;;;;;10028747;28;20074;-60
2023/02/17 01:32:48;;;;;;;120.25;83.35;;;;;;;;;;10029291;28;20128;-60
2023/02/17 01:37:42;;;;;;;120.22;77.68;;;;;;;;;;10028292;28;20518;-60
2023/02/17 01:42:35;;;;;;;121.40;75.18;;;;;;;;;;10024843;28;20100;-60
2023/02/17 01:47:28;;;;;;;120.57;78.22;;;;;;;;;;10026089;28;20459;-60
2023/02/17 01:52:25;;;;;;;126.93;82.38;;;;;;;;;;10027468;28;20060;-60
2023/02/17 01:57:23;;;;;;;118.07;74.05;;;;;;;;;;10017564;28;20078;-60
2023/02/17 02:02:19;;;;;;;123.68;79.15;;;;;;;;;;10012082;28;20042;-60
2023/02/17 02:07:34;;;;;;;109.38;71.47;;;;;;;;;;10011314;28;20046;-60
2023/02/17 02:12:33;;;;;;;102.78;64.55;;;;;;;;;;10019866;28;20413;-60
2023/02/17 02:17:49;;;;;;;86.97;56.60;;;;;;;;;;10020896;28;20049;-60
2023/02/17 02:23:16;;;;;;;88.78;57.17;;;;;;;;;;10014272;28;20046;-60
2023/02/17 02:28:12;;;;;;;87.15;56.13;;;;;;;;;;10008697;28;20434;-60
2023/02/17 02:33:11;;;;;;;84.40;56.60;;;;;;;;;;10027341;28;20042;-60
2023/02/17 02:38:05;;;;;;;;;;;;;;;;;;10020787;28;20463;-60
2023/02/17 02:43:01;;;;;;;90.10;59.10;;;;;;;;;;10021580;28;20382;-60
2023/02/17 02:47:55;;;;;;;81.85;52.78;;;;;;;;;;10013081;28;20088;-60
2023/02/17 02:52:57;;;;;;;82.78;53.85;;;;;;;;;;10016232;28;20100;-60
2023/02/17 02:57:52;;;;;;;;;;;;;;;;;;10009579;28;20137;-60
2023/02/17 03:02:56;;;;;;;74.88;52.13;;;;;;;;;;10026635;28;19929;-60
2023/02/17 03:08:03;;;;;;;82.90;53.78;;;;;;;;;;10027063;28;20071;-60
2023/02/17 03:12:56;;;;;;;84.30;59.83;;;;;;;;;;10010273;28;20058;-60
2023/02/17 03:17:49;;;;;;;87.20;56.97;;;;;;;;;;10026330;28;20100;-61
2023/02/17 03:22:46;;;;;;;92.70;61.13;;;;;;;;;;10022657;28;20054;-60
2023/02/17 03:27:40;;;;;;;92.97;59.08;;;;;;;;;;10025663;28;20396;-60
2023/02/17 03:32:32;;;;;;;85.82;57.25;;;;;;;;;;10025838;28;20054;-60
2023/02/17 03:37:26;;;;;;;88.13;52.00;;;;;;;;;;10025537;28;20056;-60
2023/02/17 03:42:19;;;;;;;73.47;48.30;;;;;;;;;;10027282;28;20529;-60
2023/02/17 03:47:13;;;;;;;70.68;48.30;;;;;;;;;;10027525;28;20053;-60
2023/02/17 03:52:06;;;;;;;76.25;50.28;;;;;;;;;;10026323;28;20058;-60
2023/02/17 03:57:00;;;;;;;70.05;46.67;;;;;;;;;;10025943;28;20064;-60
2023/02/17 04:01:54;;;;;;;68.47;47.40;;;;;;;;;;10024570;28;20058;-60
2023/02/17 04:06:46;;;;;;;72.65;46.22;;;;;;;;;;10008819;28;20054;-60
2023/02/17 04:11:43;;;;;;;69.97;44.22;;;;;;;;;;10024681;28;20058;-60
2023/02/17 04:16:38;;;;;;;60.15;39.53;;;;;;;;;;10025506;28;20054;-62
2023/02/17 04:21:31;;;;;;;60.85;42.80;;;;;;;;;;10025971;28;20065;-60
2023/02/17 04:26:25;;;;;;;63.15;39.30;;;;;;;;;;10012732;28;20542;-60
2023/02/17 04:31:21;;;;;;;56.63;36.72;;;;;;;;;;10011466;28;20499;-60
2023/02/17 04:36:15;;;;;;;60.05;39.63;;;;;;;;;;10000503;28;20507;-60
2023/02/17 04:41:09;;;;;;;58.90;38.92;;;;;;;;;;10025407;28;20072;-60
2023/02/17 04:46:03;;;;;;;47.78;35.22;;;;;;;;;;10015969;28;20081;-60
2023/02/17 04:50:57;;;;;;;52.72;33.83;;;;;;;;;;10003150;28;20050;-60
2023/02/17 04:55:53;;;;;;;54.33;35.28;;;;;;;;;;10010757;28;20117;-60
2023/02/17 05:00:50;;;;;;;45.33;33.47;;;;;;;;;;10014262;28;20497;-60
2023/02/17 05:05:43;;;;;;;49.22;33.47;;;;;;;;;;10023403;28;20550;-61
2023/02/17 05:10:36;;;;;;;46.35;32.78;;;;;;;;;;10023965;28;20050;-61
2023/02/17 05:15:30;;;;;;;55.33;38.75;;;;;;;;;;10025008;28;20057;-60
2023/02/17 05:20:26;;;;;;;59.30;38.70;;;;;;;;;;10031362;28;20494;-60
2023/02/17 05:25:20;;;;;;;61.35;42.53;;;;;;;;;;10030935;28;20052;-60
2023/02/17 05:30:14;;;;;;;64.93;42.88;;;;;;;;;;10031478;28;20053;-60
2023/02/17 05:35:08;;;;;;;56.53;40.65;;;;;;;;;;10030159;28;20395;-60
2023/02/17 05:40:01;;;;;;;63.35;40.92;;;;;;;;;;10029857;28;20050;-60
2023/02/17 05:44:55;;;;;;;55.67;38.13;;;;;;;;;;10030800;28;20137;-62
2023/02/17 05:49:49;;;;;;;59.55;41.65;;;;;;;;;;10027798;28;20060;-61
2023/02/17 05:54:42;;;;;;;62.97;38.90;;;;;;;;;;10028574;28;20117;-61
2023/02/17 05:59:36;;;;;;;57.28;37.88;;;;;;;;;;10021546;28;20586;-61
2023/02/17 06:04:28;;;;;;;56.25;38.03;;;;;;;;;;10009880;28;20046;-61
2023/02/17 06:09:22;;;;;;;57.10;43.13;;;;;;;;;;10007674;28;20424;-61
2023/02/17 06:14:15;;;;;;;61.75;40.78;;;;;;;;;;10008397;28;20046;-61
2023/02/17 06:19:09;;;;;;;61.10;39.05;;;;;;;;;;10020256;28;20046;-61
2023/02/17 06:24:04;;;;;;;59.33;38.58;;;;;;;;;;10024568;28;20136;-62
2023/02/17 06:28:57;;;;;;;61.28;42.03;;;;;;;;;;10013573;28;20529;-64
2023/02/17 06:33:51;;;;;;;72.07;45.05;;;;;;;;;;10024327;28;20084;-62
2023/02/17 06:38:45;;;;;;;61.78;44.65;;;;;;;;;;10025085;28;20049;-62
2023/02/17 06:43:38;;;;;;;63.17;42.50;;;;;;;;;;10027959;28;20041;-64
2023/02/17 06:48:32;;;;;;;65.53;44.53;;;;;;;;;;10026877;28;20104;-64
2023/02/17 06:53:26;;;;;;;61.67;42.10;;;;;;;;;;10026466;28;20082;-64
2023/02/17 06:58:20;;;;;;;64.00;41.22;;;;;;;;;;10026342;28;20082;-64
2023/02/17 07:03:13;;;;;;;69.72;43.97;;;;;;;;;;10016864;28;20058;-64
2023/02/17 07:08:07;;;;;;;62.85;40.72;;;;;;;;;;10011018;28;20069;-64
2023/02/17 07:13:00;;;;;;;60.63;40.22;;;;;;;;;;10024034;28;20054;-64
2023/02/17 07:17:53;;;;;;;63.55;40.30;;;;;;;;;;10016601;28;20049;-64
2023/02/17 07:22:47;;;;;;;65.53;39.97;;;;;;;;;;10018007;28;20042;-64
2023/02/17 07:27:41;;;;;;;61.33;40.50;;;;;;;;;;10025548;28;20050;-64
2023/02/17 07:32:35;;;;;;;67.28;45.13;;;;;;;;;;10026880;28;20136;-64
2023/02/17 07:37:28;;;;;;;63.83;42.00;;;;;;;;;;10020445;28;20120;-64
2023/02/17 07:42:22;;;;;;;58.67;36.88;;;;;;;;;;10014168;28;20046;-64
2023/02/17 07:47:16;;;;;;;51.70;38.20;;;;;;;;;;10014094;28;20046;-64
2023/02/17 07:52:10;;;;;;;55.63;39.85;;;;;;;;;;10025593;28;20510;-64
2023/02/17 07:57:04;;;;;;;53.92;37.85;;;;;;;;;;10017225;28;20124;-64
2023/02/17 08:01:57;;;;;;;56.30;37.92;;;;;;;;;;10010283;28;20084;-63
2023/02/17 08:06:50;;;;;;;62.53;40.70;;;;;;;;;;10015030;28;20042;-63
2023/02/17 08:16:56;;;;;;;45.67;33.70;;;;;;;;;;10020193;28;20137;-63
2023/02/17 08:21:50;;;;;;;59.70;33.90;;;;;;;;;;10026083;28;20048;-64
2023/02/17 08:26:44;;;;;;;51.58;32.65;;;;;;;;;;10023877;28;20054;-64
2023/02/17 08:31:37;;;;;;;42.90;31.70;;;;;;;;;;10024475;28;20060;-64
2023/02/17 08:36:32;;;;;;;49.40;32.25;;;;;;;;;;10024909;28;20053;-64
2023/02/17 08:41:29;;;;;;;51.25;31.73;;;;;;;;;;10024984;28;20045;-64
2023/02/17 08:46:23;;;;;;;48.08;30.48;;;;;;;;;;10013515;28;20053;-64
2023/02/17 08:51:18;;;;;;;45.40;31.25;;;;;;;;;;10023899;28;20081;-64
2023/02/17 08:56:11;;;;;;;40.30;26.75;;;;;;;;;;10032246;28;20173;-64
2023/02/17 09:01:04;;;;;;;27.52;22.83;;;;;;;;;;10024944;28;20155;-64
2023/02/17 09:05:58;;;;;;;36.20;27.20;;;;;;;;;;10019230;28;20054;-64
2023/02/17 09:10:55;;;;;;;28.10;18.25;;;;;;;;;;10014569;28;20052;-64
2023/02/17 09:15:48;;;;;;;33.92;23.48;;;;;;;;;;10032518;28;20483;-63
2023/02/17 09:20:42;;;;;;;27.25;18.98;;;;;;;;;;10011979;28;20097;-64
2023/02/17 09:25:35;;;;;;;28.58;18.27;;;;;;;;;;10009624;28;20239;-64
2023/02/17 09:30:29;;;;;;;21.40;16.20;;;;;;;;;;10031804;28;20050;-63
2023/02/17 09:35:23;;;;;;;30.83;18.42;;;;;;;;;;10021399;28;20105;-64
2023/02/17 09:40:23;;;;;;;20.23;17.45;;;;;;;;;;10018221;28;20045;-64
2023/02/17 09:45:20;;;;;;;22.35;18.08;;;;;;;;;;10019770;28;20078;-64
2023/02/17 09:50:17;;;;;;;26.35;21.13;;;;;;;;;;10020472;28;20100;-64
2023/02/17 09:55:25;;;;;;;23.92;18.90;;;;;;;;;;10029181;28;20125;-64
2023/02/17 10:00:39;;;;;;;26.63;20.55;;;;;;;;;;10027325;28;20082;-64
2023/02/17 10:05:37;;;;;;;30.80;20.60;;;;;;;;;;10019473;28;20053;-64
2023/02/17 10:10:44;;;;;;;20.52;18.30;;;;;;;;;;10028258;28;20061;-64
2023/02/17 10:15:41;;;;;;;24.10;19.30;;;;;;;;;;10022765;28;20137;-64
2023/02/17 10:20:40;;;;;;;23.85;18.73;;;;;;;;;;10027854;28;20961;-64
2023/02/17 10:26:10;;;;;;;27.10;19.65;;;;;;;;;;10025780;28;20125;-64
2023/02/17 10:31:06;;;;;;;25.35;18.13;;;;;;;;;;10028894;28;20455;-64
2023/02/17 10:36:16;;;;;;;25.40;19.33;;;;;;;;;;10024220;28;20052;-64
2023/02/17 10:41:14;;;;;;;28.13;18.88;;;;;;;;;;10025422;28;20415;-64
2023/02/17 10:46:08;;;;;;;23.73;19.57;;;;;;;;;;10028619;28;20054;-64
2023/02/17 10:51:01;;;;;;;24.17;16.92;;;;;;;;;;10016947;28;20085;-64
2023/02/17 10:56:13;;;;;;;19.55;14.65;;;;;;;;;;10024156;28;20038;-64
2023/02/17 11:01:07;;;;;;;23.95;16.92;;;;;;;;;;10027395;28;20510;-64
2023/02/17 11:06:05;;;;;;;21.05;16.98;;;;;;;;;;10020303;28;20477;-64
2023/02/17 11:11:04;;;;;;;17.73;14.50;;;;;;;;;;10017291;28;20085;-64
2023/02/17 11:15:57;;;;;;;20.15;16.42;;;;;;;;;;10017717;28;20311;-63
2023/02/17 11:20:49;;;;;;;24.38;17.23;;;;;;;;;;10015990;28;20128;-64
2023/02/17 11:25:55;;;;;;;21.02;16.98;;;;;;;;;;10014402;28;20554;-64
2023/02/17 11:31:20;;;;;;;23.23;18.13;;;;;;;;;;10002037;28;20050;-63
2023/02/17 11:36:26;;;;;;;22.00;16.52;;;;;;;;;;10010952;28;20046;-64
2023/02/17 11:41:19;;;;;;;21.33;15.40;;;;;;;;;;10016636;28;20466;-63
2023/02/17 11:46:35;;;;;;;21.23;17.42;;;;;;;;;;10026554;28;20080;-64
2023/02/17 11:52:01;;;;;;;24.58;16.85;;;;;;;;;;10027573;28;20064;-63
2023/02/17 11:57:16;;;;;;;21.23;16.73;;;;;;;;;;10026424;28;20054;-63
2023/02/17 12:02:20;;;;;;;20.73;15.88;;;;;;;;;;10026172;28;20421;-64
2023/02/17 12:07:29;;;;;;;25.80;16.35;;;;;;;;;;10000950;28;20478;-63
2023/02/17 12:12:55;;;;;;;20.40;14.55;;;;;;;;;;10030165;28;20061;-63
2023/02/17 12:17:49;;;;;;;20.65;14.30;;;;;;;;;;10026664;28;20077;-63
2023/02/17 12:22:57;;;;;;;19.08;15.73;;;;;;;;;;10024966;28;20057;-63
2023/02/17 12:28:11;;;;;;;21.58;16.70;;;;;;;;;;10032175;28;20073;-63
2023/02/17 12:33:30;;;;;;;18.30;14.38;;;;;;;;;;10032186;28;20065;-62
2023/02/17 12:38:50;;;;;;;17.17;14.75;;;;;;;;;;10033119;28;20136;-62
2023/02/17 12:43:55;;;;;;;21.30;14.93;;;;;;;;;;10024614;28;20050;-63
2023/02/17 12:49:09;;;;;;;19.40;14.20;;;;;;;;;;10033000;28;20060;-62
2023/02/17 12:54:12;;;;;;;17.42;13.73;;;;;;;;;;10032002;28;20414;-62
2023/02/17 12:59:33;;;;;;;20.05;15.43;;;;;;;;;;10031272;28;20089;-62
2023/02/17 13:04:26;;;;;;;19.65;14.95;;;;;;;;;;10029722;28;20050;-62
2023/02/17 13:09:36;;;;;;;17.38;14.10;;;;;;;;;;10031971;28;20060;-62
2023/02/17 13:14:41;;;;;;;19.98;13.25;;;;;;;;;;10030840;28;20133;-62
2023/02/17 13:19:35;;;;;;;17.10;13.90;;;;;;;;;;10032177;28;20100;-62
2023/02/17 13:24:32;;;;;;;17.23;13.15;;;;;;;;;;10028665;28;20124;-63
2023/02/17 13:29:26;;;;;;;20.03;13.17;;;;;;;;;;10026268;28;20407;-62
2023/02/17 13:34:23;;;;;;;16.30;12.40;;;;;;;;;;10028683;28;20108;-62
2023/02/17 13:39:25;;;;;;;18.55;12.52;;;;;;;;;;10030154;28;20064;-62
2023/02/17 13:44:33;;;;;;;16.98;13.48;;;;;;;;;;10014749;28;20148;-62
2023/02/17 13:49:28;;;;;;;23.42;13.63;;;;;;;;;;10023322;28;20062;-61
2023/02/17 13:54:22;;;;;;;16.85;14.02;;;;;;;;;;10027072;28;20045;-61
2023/02/17 13:59:17;;;;;;;19.65;13.85;;;;;;;;;;10027150;28;20141;-62
2023/02/17 14:04:26;;;;;;;14.88;12.18;;;;;;;;;;10026923;28;20053;-62
2023/02/17 14:09:39;;;;;;;18.33;13.07;;;;;;;;;;10014411;28;20048;-61
2023/02/17 14:14:52;;;;;;;15.70;11.77;;;;;;;;;;10024427;28;20132;-62
2023/02/17 14:19:48;;;;;;;14.02;12.32;;;;;;;;;;10025620;28;20054;-62
2023/02/17 14:24:41;;;;;;;15.80;11.55;;;;;;;;;;10026428;28;20057;-61
2023/02/17 14:29:38;;;;;;;15.13;11.95;;;;;;;;;;10022449;28;20050;-61
2023/02/17 14:34:34;;;;;;;19.15;11.90;;;;;;;;;;10025769;28;20062;-62
2023/02/17 14:39:27;;;;;;;14.02;11.02;;;;;;;;;;10025370;28;20054;-61
2023/02/17 14:44:20;;;;;;;14.23;10.88;;;;;;;;;;10025652;28;20053;-62
2023/02/17 14:49:14;;;;;;;11.23;9.07;;;;;;;;;;10024240;28;20096;-61
2023/02/17 14:54:15;;;;;;;14.68;11.93;;;;;;;;;;10025334;28;20058;-62
2023/02/17 14:59:09;;;;;;;19.05;11.55;;;;;;;;;;10023444;28;20474;-62
2023/02/17 15:04:02;;;;;;;16.10;12.73;;;;;;;;;;10022251;28;20144;-62
2023/02/17 15:08:55;;;;;;;14.55;12.13;;;;;;;;;;10022560;28;20049;-62
2023/02/17 15:13:48;;;;;;;16.65;12.43;;;;;;;;;;10013339;28;20129;-62
2023/02/17 15:18:41;;;;;;;17.50;12.50;;;;;;;;;;10024482;28;20158;-61
2023/02/17 15:23:34;;;;;;;16.05;13.32;;;;;;;;;;10023386;28;20145;-62
2023/02/17 15:28:27;;;;;;;18.75;13.93;;;;;;;;;;10022717;28;20478;-62
2023/02/17 15:33:20;;;;;;;18.73;14.68;;;;;;;;;;10021051;28;20054;-62
2023/02/17 15:38:14;;;;;;;16.27;12.52;;;;;;;;;;10020352;28;20054;-63
2023/02/17 15:43:14;;;;;;;16.13;13.13;;;;;;;;;;10019728;28;20046;-62
2023/02/17 15:48:07;;;;;;;;;;;;;;;;;;10022645;28;20075;-62
2023/02/17 15:53:00;;;;;;;18.45;12.70;;;;;;;;;;10020621;28;19921;-62
2023/02/17 15:57:55;;;;;;;16.13;12.45;;;;;;;;;;10022354;28;20475;-62
2023/02/17 16:02:50;;;;;;;18.55;12.10;;;;;;;;;;10008390;28;20053;-62
2023/02/17 16:07:43;;;;;;;17.17;12.75;;;;;;;;;;10021349;28;20474;-63
2023/02/17 16:12:37;;;;;;;16.70;11.95;;;;;;;;;;10019493;28;20092;-62
2023/02/17 16:17:30;;;;;;;20.08;11.75;;;;;;;;;;10021977;28;20064;-62
2023/02/17 16:22:24;;;;;;;15.27;12.07;;;;;;;;;;10021460;28;20064;-62
2023/02/17 16:27:18;;;;;;;16.55;12.30;;;;;;;;;;10021326;28;20104;-63
2023/02/17 16:32:11;;;;;;;15.48;12.77;;;;;;;;;;10018698;28;20076;-62
2023/02/17 16:37:14;;;;;;;18.95;13.73;;;;;;;;;;10021508;28;20050;-62
2023/02/17 16:42:10;;;;;;;17.85;13.80;;;;;;;;;;10020233;28;20046;-63
2023/02/17 16:47:05;;;;;;;25.67;14.00;;;;;;;;;;10011466;28;20046;-62
2023/02/17 16:52:07;;;;;;;16.25;12.68;;;;;;;;;;10020429;28;20141;-62
2023/02/17 16:57:00;;;;;;;30.58;15.23;;;;;;;;;;10020886;28;20046;-62
2023/02/17 17:01:53;;;;;;;18.90;14.65;;;;;;;;;;10020242;28;20061;-62
2023/02/17 17:06:49;;;;;;;20.80;15.77;;;;;;;;;;10021190;28;20054;-62
2023/02/17 17:11:42;;;;;;;27.67;19.25;;;;;;;;;;10023567;28;20056;-63
2023/02/17 17:16:36;;;;;;;26.35;18.27;;;;;;;;;;10026594;28;20866;-63
2023/02/17 17:21:30;;;;;;;30.85;19.92;;;;;;;;;;10029094;28;20494;-62
2023/02/17 17:26:33;;;;;;;29.73;18.85;;;;;;;;;;10026817;28;20141;-62
2023/02/17 17:31:27;;;;;;;27.30;18.02;;;;;;;;;;10029950;28;20049;-62
2023/02/17 17:36:27;;;;;;;29.38;18.13;;;;;;;;;;10030314;28;20042;-62
2023/02/17 17:41:21;;;;;;;28.35;19.67;;;;;;;;;;10027302;28;20116;-61
2023/02/17 17:46:19;;;;;;;27.73;20.83;;;;;;;;;;10014955;28;20438;-62
2023/02/17 17:51:15;;;;;;;37.03;22.30;;;;;;;;;;10022682;28;20054;-62
2023/02/17 17:56:13;;;;;;;31.00;24.02;;;;;;;;;;10021101;28;20332;-62
2023/02/17 18:01:07;;;;;;;29.83;21.00;;;;;;;;;;10011289;28;20046;-62
2023/02/17 18:06:01;;;;;;;32.67;22.05;;;;;;;;;;10013479;28;20054;-62
2023/02/17 18:10:54;;;;;;;31.33;23.63;;;;;;;;;;10017657;28;20069;-62
2023/02/17 18:15:49;;;;;;;33.13;22.45;;;;;;;;;;10029913;28;20457;-62
2023/02/17 18:20:43;;;;;;;38.83;24.17;;;;;;;;;;10024297;28;20513;-62
2023/02/17 18:25:36;;;;;;;35.10;22.80;;;;;;;;;;10026549;28;20053;-63
2023/02/17 18:30:30;;;;;;;38.38;24.08;;;;;;;;;;10010178;28;20061;-62
2023/02/17 18:35:23;;;;;;;45.30;24.98;;;;;;;;;;10008533;28;20088;-62
2023/02/17 18:40:19;;;;;;;53.28;24.65;;;;;;;;;;10005406;28;20060;-61
2023/02/17 18:45:13;;;;;;;35.90;25.70;;;;;;;;;;10010595;28;20054;-64
2023/02/17 18:50:10;;;;;;;33.30;25.02;;;;;;;;;;10009523;28;20656;-65
2023/02/17 18:55:05;;;;;;;38.28;25.73;;;;;;;;;;10010418;28;20519;-62
2023/02/17 19:00:00;;;;;;;51.88;27.70;;;;;;;;;;9995024;28;20074;-64
2023/02/17 19:04:52;;;;;;;46.00;26.23;;;;;;;;;;9996716;28;20057;-62
2023/02/17 19:09:46;;;;;;;46.88;27.92;;;;;;;;;;9998320;28;20070;-60
2023/02/17 19:14:39;;;;;;;42.15;27.80;;;;;;;;;;10008607;28;20499;-63
2023/02/17 19:19:36;;;;;;;35.17;26.13;;;;;;;;;;10007659;28;20618;-63
2023/02/17 19:24:30;;;;;;;49.72;28.20;;;;;;;;;;10016355;28;20048;-61
2023/02/17 19:29:23;;;;;;;40.90;27.85;;;;;;;;;;10012036;28;20046;-65
2023/02/17 19:34:18;;;;;;;41.58;28.33;;;;;;;;;;10009493;28;20046;-63
2023/02/17 19:39:12;;;;;;;43.35;29.10;;;;;;;;;;9999616;28;20418;-64
2023/02/17 19:44:05;;;;;;;41.20;28.20;;;;;;;;;;10010747;28;20046;-63
2023/02/17 19:48:58;;;;;;;40.05;28.77;;;;;;;;;;10003743;28;20519;-67
2023/02/17 19:53:52;;;;;;;45.92;27.08;;;;;;;;;;10003768;28;20125;-63
2023/02/17 19:58:46;;;;;;;43.05;30.02;;;;;;;;;;10010498;28;20046;-63
2023/02/17 20:03:40;;;;;;;42.55;28.92;;;;;;;;;;10001573;28;20529;-62
2023/02/17 20:08:35;;;;;;;43.65;30.08;;;;;;;;;;10012919;28;20042;-63
2023/02/17 20:13:31;;;;;;;51.40;34.72;;;;;;;;;;10002534;28;20052;-64
2023/02/17 20:18:39;;;;;;;53.75;38.55;;;;;;;;;;10011838;28;20046;-64
2023/02/17 20:23:33;;;;;;;59.72;40.80;;;;;;;;;;10010534;28;20045;-64
2023/02/17 20:28:27;;;;;;;60.20;39.88;;;;;;;;;;10003231;28;20086;-66
2023/02/17 20:33:21;;;;;;;61.22;39.30;;;;;;;;;;10007369;28;20495;-64
2023/02/17 20:38:15;;;;;;;50.75;34.47;;;;;;;;;;10014302;28;20105;-64
2023/02/17 20:43:11;;;;;;;44.72;32.13;;;;;;;;;;10009274;28;20057;-65
2023/02/17 20:48:26;;;;;;;48.15;33.10;;;;;;;;;;10009313;28;20053;-65
2023/02/17 20:53:19;;;;;;;48.30;32.07;;;;;;;;;;10012650;28;20410;-65
2023/02/17 20:58:12;;;;;;;46.53;31.80;;;;;;;;;;10014757;28;20403;-66
2023/02/17 21:03:05;;;;;;;51.47;33.05;;;;;;;;;;10015805;28;20046;-65
2023/02/17 21:07:58;;;;;;;51.45;37.08;;;;;;;;;;10015106;28;20545;-65
2023/02/17 21:12:51;;;;;;;43.42;31.77;;;;;;;;;;10020099;28;20061;-64
2023/02/17 21:17:44;;;;;;;47.72;34.95;;;;;;;;;;10020455;28;20491;-64
2023/02/17 21:22:37;;;;;;;45.75;33.92;;;;;;;;;;10012509;28;20046;-64
2023/02/17 21:27:31;;;;;;;42.63;30.17;;;;;;;;;;10014816;28;20050;-64
2023/02/17 21:32:25;;;;;;;44.35;31.90;;;;;;;;;;10018427;28;20070;-64
2023/02/17 21:37:19;;;;;;;44.72;31.35;;;;;;;;;;10007376;28;20050;-64
2023/02/17 21:42:13;;;;;;;39.88;27.83;;;;;;;;;;10021034;28;20137;-64
2023/02/17 21:47:06;;;;;;;43.50;28.50;;;;;;;;;;10003197;28;20042;-65
2023/02/17 21:52:00;;;;;;;36.65;28.08;;;;;;;;;;10014087;28;20058;-63
2023/02/17 21:56:55;;;;;;;42.80;28.27;;;;;;;;;;10007571;28;20125;-63
2023/02/17 22:01:48;;;;;;;39.80;28.02;;;;;;;;;;10011842;28;20046;-63
2023/02/17 22:06:42;;;;;;;53.97;36.00;;;;;;;;;;10014010;28;20092;-63
2023/02/17 22:11:40;;;;;;;42.92;32.47;;;;;;;;;;10017237;28;20506;-63
2023/02/17 22:16:34;;;;;;;40.38;29.95;;;;;;;;;;10009468;28;20101;-62
2023/02/17 22:21:28;;;;;;;40.85;30.10;;;;;;;;;;10019130;28;20049;-62
2023/02/17 22:26:23;;;;;;;41.88;30.88;;;;;;;;;;10016826;28;20038;-63
2023/02/17 22:31:19;;;;;;;41.42;29.40;;;;;;;;;;10003581;28;20056;-64
2023/02/17 22:36:15;;;;;;;40.78;30.38;;;;;;;;;;10004828;28;20054;-64
2023/02/17 22:41:10;;;;;;;44.33;31.38;;;;;;;;;;10026167;28;20627;-64
2023/02/17 22:46:03;;;;;;;42.30;31.17;;;;;;;;;;10024284;28;20045;-64
2023/02/17 22:50:57;;;;;;;42.65;31.90;;;;;;;;;;10027691;28;20514;-64
2023/02/17 22:55:55;;;;;;;40.67;30.85;;;;;;;;;;10020558;28;20121;-64
2023/02/17 23:00:47;;;;;;;46.40;31.27;;;;;;;;;;10009054;28;20053;-65
2023/02/17 23:05:42;;;;;;;39.10;29.05;;;;;;;;;;10009106;28;20046;-67
2023/02/17 23:10:39;;;;;;;42.72;28.38;;;;;;;;;;10004753;28;20058;-65
2023/02/17 23:15:38;;;;;;;39.42;27.10;;;;;;;;;;10013197;28;20072;-64
2023/02/17 23:20:32;;;;;;;41.55;29.73;;;;;;;;;;10013684;28;20095;-67
2023/02/17 23:25:25;;;;;;;43.95;29.13;;;;;;;;;;10015711;28;20077;-67
2023/02/17 23:30:19;;;;;;;39.28;31.67;;;;;;;;;;10007958;28;20097;-67
2023/02/17 23:35:13;;;;;;;40.80;30.30;;;;;;;;;;10013632;28;20100;-67
2023/02/17 23:40:06;;;;;;;40.38;31.02;;;;;;;;;;10011657;28;20141;-67
2023/02/17 23:44:59;;;;;;;35.92;27.63;;;;;;;;;;10010967;28;20050;-67
2023/02/17 23:49:53;;;;;;;37.95;29.25;;;;;;;;;;10008969;28;20050;-67
2023/02/17 23:54:46;;;;;;;34.45;27.55;;;;;;;;;;10008415;28;20085;-67
2023/02/17 23:59:39;;;;;;;36.20;27.52;;;;;;;;;;10001616;28;20503;-67
